sensor_id;sensor_type;location;lat;lon;timestamp;pressure;altitude;pressure_sealevel;temperature;humidity
73341;BME280;61578;52.002;5.468;2023-04-01T00:00:17;99028.28;;;11.36;92.93
73341;BME280;61578;52.002;5.468;2023-04-01T00:00:48;99023.81;;;11.36;92.78
73341;BME280;61578;52.002;5.468;2023-04-01T00:01:19;99027.44;;;11.35;92.85
73341;BME280;61578;52.002;5.468;2023-04-01T00:01:50;99018.91;;;11.32;92.43
73341;BME280;61578;52.002;5.468;2023-04-01T00:02:20;99021.00;;;11.38;92.43
73341;BME280;61578;52.002;5.468;2023-04-01T00:02:51;99019.06;;;11.30;92.23
73341;BME280;61578;52.002;5.468;2023-04-01T00:03:24;99033.59;;;11.36;92.26
73341;BME280;61578;52.002;5.468;2023-04-01T00:03:56;99034.56;;;11.35;92.47
73341;BME280;61578;52.002;5.468;2023-04-01T00:04:27;99031.91;;;11.35;92.30
73341;BME280;61578;52.002;5.468;2023-04-01T00:04:58;99030.94;;;11.36;92.47
73341;BME280;61578;52.002;5.468;2023-04-01T00:05:28;99030.78;;;11.37;92.24
73341;BME280;61578;52.002;5.468;2023-04-01T00:06:00;99024.91;;;11.34;92.64
73341;BME280;61578;52.002;5.468;2023-04-01T00:06:31;99031.91;;;11.35;92.60
73341;BME280;61578;52.002;5.468;2023-04-01T00:07:01;99033.59;;;11.36;92.74
73341;BME280;61578;52.002;5.468;2023-04-01T00:07:32;99026.47;;;11.36;92.88
73341;BME280;61578;52.002;5.468;2023-04-01T00:08:03;99027.28;;;11.37;92.58
73341;BME280;61578;52.002;5.468;2023-04-01T00:08:34;99031.91;;;11.35;92.86
73341;BME280;61578;52.002;5.468;2023-04-01T00:09:05;99024.38;;;11.30;92.76
73341;BME280;61578;52.002;5.468;2023-04-01T00:09:35;99030.78;;;11.37;92.40
73341;BME280;61578;52.002;5.468;2023-04-01T00:10:09;99029.25;;;11.35;92.47
73341;BME280;61578;52.002;5.468;2023-04-01T00:10:41;99025.06;;;11.32;92.71
73341;BME280;61578;52.002;5.468;2023-04-01T00:11:13;99031.78;;;11.36;92.55
73341;BME280;61578;52.002;5.468;2023-04-01T00:11:45;99033.59;;;11.36;92.73
73341;BME280;61578;52.002;5.468;2023-04-01T00:12:15;99037.09;;;11.36;92.80
73341;BME280;61578;52.002;5.468;2023-04-01T00:12:46;99029.13;;;11.36;92.80
73341;BME280;61578;52.002;5.468;2023-04-01T00:13:17;99031.78;;;11.36;92.93
73341;BME280;61578;52.002;5.468;2023-04-01T00:13:48;99034.44;;;11.36;92.71
73341;BME280;61578;52.002;5.468;2023-04-01T00:14:19;99036.94;;;11.38;93.15
73341;BME280;61578;52.002;5.468;2023-04-01T00:14:50;99034.13;;;11.39;92.74
73341;BME280;61578;52.002;5.468;2023-04-01T00:15:21;99035.97;;;11.39;92.94
73341;BME280;61578;52.002;5.468;2023-04-01T00:15:53;99036.78;;;11.39;92.88
73341;BME280;61578;52.002;5.468;2023-04-01T00:16:25;99030.09;;;11.35;92.59
73341;BME280;61578;52.002;5.468;2023-04-01T00:16:55;99016.41;;;11.30;92.74
73341;BME280;61578;52.002;5.468;2023-04-01T00:17:27;99029.41;;;11.33;92.53
73341;BME280;61578;52.002;5.468;2023-04-01T00:17:58;99041.28;;;11.39;92.86
73341;BME280;61578;52.002;5.468;2023-04-01T00:18:29;99037.59;;;11.40;92.53
73341;BME280;61578;52.002;5.468;2023-04-01T00:19:00;99034.13;;;11.39;92.41
73341;BME280;61578;52.002;5.468;2023-04-01T00:19:31;99019.06;;;11.30;92.63
73341;BME280;61578;52.002;5.468;2023-04-01T00:20:03;99032.59;;;11.37;92.78
73341;BME280;61578;52.002;5.468;2023-04-01T00:20:35;99035.25;;;11.37;92.80
73341;BME280;61578;52.002;5.468;2023-04-01T00:21:06;99033.44;;;11.37;92.35
73341;BME280;61578;52.002;5.468;2023-04-01T00:21:37;99036.09;;;11.37;92.49
73341;BME280;61578;52.002;5.468;2023-04-01T00:22:08;99034.13;;;11.39;92.60
73341;BME280;61578;52.002;5.468;2023-04-01T00:22:41;99020.59;;;11.33;92.42
73341;BME280;61578;52.002;5.468;2023-04-01T00:23:13;99026.31;;;11.38;92.51
73341;BME280;61578;52.002;5.468;2023-04-01T00:23:44;99035.13;;;11.38;92.86
73341;BME280;61578;52.002;5.468;2023-04-01T00:24:15;99037.09;;;11.36;92.84
73341;BME280;61578;52.002;5.468;2023-04-01T00:24:46;99036.09;;;11.37;92.79
73341;BME280;61578;52.002;5.468;2023-04-01T00:25:17;99033.13;;;11.40;92.61
73341;BME280;61578;52.002;5.468;2023-04-01T00:25:48;99040.25;;;11.40;93.19
73341;BME280;61578;52.002;5.468;2023-04-01T00:26:20;99019.59;;;11.34;92.89
73341;BME280;61578;52.002;5.468;2023-04-01T00:26:51;99034.81;;;11.41;92.54
73341;BME280;61578;52.002;5.468;2023-04-01T00:27:22;99037.59;;;11.40;92.74
73341;BME280;61578;52.002;5.468;2023-04-01T00:27:53;99033.81;;;11.42;92.39
73341;BME280;61578;52.002;5.468;2023-04-01T00:28:23;99041.78;;;11.42;92.71
73341;BME280;61578;52.002;5.468;2023-04-01T00:28:54;99037.59;;;11.40;92.42
73341;BME280;61578;52.002;5.468;2023-04-01T00:29:25;99034.13;;;11.39;92.59
73341;BME280;61578;52.002;5.468;2023-04-01T00:29:59;99038.63;;;11.39;92.83
73341;BME280;61578;52.002;5.468;2023-04-01T00:30:30;99036.63;;;11.41;92.75
73341;BME280;61578;52.002;5.468;2023-04-01T00:31:09;99038.63;;;11.39;92.62
73341;BME280;61578;52.002;5.468;2023-04-01T00:31:40;99039.44;;;11.39;92.86
73341;BME280;61578;52.002;5.468;2023-04-01T00:32:12;99034.13;;;11.39;92.81
73341;BME280;61578;52.002;5.468;2023-04-01T00:32:43;99039.44;;;11.39;92.93
73341;BME280;61578;52.002;5.468;2023-04-01T00:33:34;99034.72;;;11.33;92.58
73341;BME280;61578;52.002;5.468;2023-04-01T00:34:26;99030.94;;;11.36;93.22
73341;BME280;61578;52.002;5.468;2023-04-01T00:35:17;99034.44;;;11.36;92.96
73341;BME280;61578;52.002;5.468;2023-04-01T00:36:10;99044.06;;;11.37;93.09
73341;BME280;61578;52.002;5.468;2023-04-01T00:37:04;99037.78;;;11.38;92.95
73341;BME280;61578;52.002;5.468;2023-04-01T00:37:55;99023.28;;;11.23;92.86
73341;BME280;61578;52.002;5.468;2023-04-01T00:38:46;99043.38;;;11.35;92.93
73341;BME280;61578;52.002;5.468;2023-04-01T00:39:38;99038.22;;;11.34;92.31
73341;BME280;61578;52.002;5.468;2023-04-01T00:40:33;99039.19;;;11.33;92.62
73341;BME280;61578;52.002;5.468;2023-04-01T00:41:26;99046.19;;;11.34;92.94
73341;BME280;61578;52.002;5.468;2023-04-01T00:42:18;99046.19;;;11.34;92.53
73341;BME280;61578;52.002;5.468;2023-04-01T00:43:15;99042.69;;;11.33;92.74
73341;BME280;61578;52.002;5.468;2023-04-01T00:44:19;99037.97;;;11.27;92.63
73341;BME280;61578;52.002;5.468;2023-04-01T00:45:38;99039.19;;;11.33;92.47
73341;BME280;61578;52.002;5.468;2023-04-01T00:46:31;99050.66;;;11.33;92.66
73341;BME280;61578;52.002;5.468;2023-04-01T00:47:25;99038.34;;;11.32;92.57
73341;BME280;61578;52.002;5.468;2023-04-01T00:48:21;99048.13;;;11.32;92.40
73341;BME280;61578;52.002;5.468;2023-04-01T00:49:19;99044.50;;;11.33;92.74
73341;BME280;61578;52.002;5.468;2023-04-01T00:50:14;99047.63;;;11.28;92.34
73341;BME280;61578;52.002;5.468;2023-04-01T00:51:24;99050.28;;;11.28;92.01
73341;BME280;61578;52.002;5.468;2023-04-01T00:52:21;99036.72;;;11.22;92.31
73341;BME280;61578;52.002;5.468;2023-04-01T00:53:18;99053.91;;;11.27;92.65
73341;BME280;61578;52.002;5.468;2023-04-01T00:54:12;99050.69;;;11.24;92.51
73341;BME280;61578;52.002;5.468;2023-04-01T00:55:06;99051.25;;;11.27;92.67
73341;BME280;61578;52.002;5.468;2023-04-01T00:56:00;99043.41;;;11.26;92.80
73341;BME280;61578;52.002;5.468;2023-04-01T00:56:37;99047.75;;;11.27;92.68
73341;BME280;61578;52.002;5.468;2023-04-01T00:57:31;99041.50;;;11.18;92.60
73341;BME280;61578;52.002;5.468;2023-04-01T00:58:11;99047.06;;;11.25;92.28
73341;BME280;61578;52.002;5.468;2023-04-01T00:58:51;99053.22;;;11.25;92.48
73341;BME280;61578;52.002;5.468;2023-04-01T00:59:30;99046.91;;;11.26;92.04
73341;BME280;61578;52.002;5.468;2023-04-01T01:00:11;99043.19;;;11.19;92.18
73341;BME280;61578;52.002;5.468;2023-04-01T01:00:48;99052.22;;;11.26;92.07
73341;BME280;61578;52.002;5.468;2023-04-01T01:01:23;99053.75;;;11.29;91.98
73341;BME280;61578;52.002;5.468;2023-04-01T01:01:55;99053.91;;;11.27;91.83
73341;BME280;61578;52.002;5.468;2023-04-01T01:02:26;99061.88;;;11.27;91.91
73341;BME280;61578;52.002;5.468;2023-04-01T01:02:57;99051.25;;;11.27;92.08
73341;BME280;61578;52.002;5.468;2023-04-01T01:03:28;99055.03;;;11.25;92.10
73341;BME280;61578;52.002;5.468;2023-04-01T01:03:59;99060.47;;;11.23;92.30
73341;BME280;61578;52.002;5.468;2023-04-01T01:04:33;99045.25;;;11.25;92.16
73341;BME280;61578;52.002;5.468;2023-04-01T01:09:08;99059.66;;;11.23;92.27
73341;BME280;61578;52.002;5.468;2023-04-01T01:10:08;99051.81;;;11.21;92.10
73341;BME280;61578;52.002;5.468;2023-04-01T01:11:10;99054.09;;;11.16;92.06
73341;BME280;61578;52.002;5.468;2023-04-01T01:12:23;99056.59;;;11.18;92.51
73341;BME280;61578;52.002;5.468;2023-04-01T01:15:46;99063.72;;;11.17;92.56
73341;BME280;61578;52.002;5.468;2023-04-01T01:17:13;99061.22;;;11.16;92.22
73341;BME280;61578;52.002;5.468;2023-04-01T01:19:57;99072.69;;;11.16;91.96
73341;BME280;61578;52.002;5.468;2023-04-01T01:25:08;99064.28;;;11.11;92.00
73341;BME280;61578;52.002;5.468;2023-04-01T01:27:08;99069.91;;;11.08;91.93
73341;BME280;61578;52.002;5.468;2023-04-01T01:27:50;99071.59;;;11.09;92.26
73341;BME280;61578;52.002;5.468;2023-04-01T01:29:01;99069.75;;;11.10;92.01
73341;BME280;61578;52.002;5.468;2023-04-01T01:32:09;99074.38;;;11.07;91.96
73341;BME280;61578;52.002;5.468;2023-04-01T01:35:50;99065.88;;;11.04;91.86
73341;BME280;61578;52.002;5.468;2023-04-01T01:36:31;99070.47;;;11.02;91.96
73341;BME280;61578;52.002;5.468;2023-04-01T01:37:16;99073.00;;;11.03;92.04
73341;BME280;61578;52.002;5.468;2023-04-01T01:38:02;99075.66;;;11.03;91.97
73341;BME280;61578;52.002;5.468;2023-04-01T01:38:38;99073.44;;;10.99;92.14
73341;BME280;61578;52.002;5.468;2023-04-01T01:39:12;99064.22;;;10.93;92.15
73341;BME280;61578;52.002;5.468;2023-04-01T01:39:55;99056.53;;;10.90;91.77
73341;BME280;61578;52.002;5.468;2023-04-01T01:40:33;99083.22;;;10.98;92.27
73341;BME280;61578;52.002;5.468;2023-04-01T01:41:07;99076.25;;;10.97;92.50
73341;BME280;61578;52.002;5.468;2023-04-01T01:41:44;99066.88;;;10.93;92.87
73341;BME280;61578;52.002;5.468;2023-04-01T01:42:20;99069.25;;;10.96;92.25
73341;BME280;61578;52.002;5.468;2023-04-01T01:43:00;99076.25;;;10.97;92.17
73341;BME280;61578;52.002;5.468;2023-04-01T01:43:40;99077.06;;;10.98;92.43
73341;BME280;61578;52.002;5.468;2023-04-01T01:44:16;99078.75;;;10.99;92.30
73341;BME280;61578;52.002;5.468;2023-04-01T01:44:50;99076.38;;;10.96;92.57
73341;BME280;61578;52.002;5.468;2023-04-01T01:45:26;99069.25;;;10.96;92.52
73341;BME280;61578;52.002;5.468;2023-04-01T01:46:03;99075.41;;;10.97;92.26
73341;BME280;61578;52.002;5.468;2023-04-01T01:46:40;99079.72;;;10.98;92.10
73341;BME280;61578;52.002;5.468;2023-04-01T01:47:13;99081.41;;;10.99;91.95
73341;BME280;61578;52.002;5.468;2023-04-01T01:47:49;99081.41;;;10.99;91.97
73341;BME280;61578;52.002;5.468;2023-04-01T01:48:24;99079.88;;;10.96;91.74
73341;BME280;61578;52.002;5.468;2023-04-01T01:49:00;99081.56;;;10.97;91.82
73341;BME280;61578;52.002;5.468;2023-04-01T01:49:35;99079.88;;;10.96;91.92
73341;BME280;61578;52.002;5.468;2023-04-01T01:50:09;99082.66;;;10.95;91.94
73341;BME280;61578;52.002;5.468;2023-04-01T01:50:44;99077.34;;;10.95;92.02
73341;BME280;61578;52.002;5.468;2023-04-01T01:51:18;99071.34;;;10.93;92.16
73341;BME280;61578;52.002;5.468;2023-04-01T01:51:51;99088.13;;;10.93;92.20
73341;BME280;61578;52.002;5.468;2023-04-01T01:52:23;99080.00;;;10.95;92.01
73341;BME280;61578;52.002;5.468;2023-04-01T01:53:02;99082.66;;;10.95;92.22
73341;BME280;61578;52.002;5.468;2023-04-01T01:53:35;99081.56;;;10.97;91.81
73341;BME280;61578;52.002;5.468;2023-04-01T01:54:06;99083.38;;;10.97;91.76
73341;BME280;61578;52.002;5.468;2023-04-01T01:54:47;99086.03;;;10.97;92.07
73341;BME280;61578;52.002;5.468;2023-04-01T01:55:29;99072.63;;;10.89;92.32
73341;BME280;61578;52.002;5.468;2023-04-01T01:56:03;99078.47;;;10.92;92.33
73341;BME280;61578;52.002;5.468;2023-04-01T01:56:35;99077.63;;;10.92;92.22
73341;BME280;61578;52.002;5.468;2023-04-01T01:57:09;99080.59;;;10.89;92.44
73341;BME280;61578;52.002;5.468;2023-04-01T01:57:44;99084.06;;;10.89;92.40
73341;BME280;61578;52.002;5.468;2023-04-01T01:58:31;99079.31;;;10.93;92.53
73341;BME280;61578;52.002;5.468;2023-04-01T01:59:12;99082.25;;;10.90;92.39
73341;BME280;61578;52.002;5.468;2023-04-01T01:59:48;99079.31;;;10.93;92.30
73341;BME280;61578;52.002;5.468;2023-04-01T02:00:21;99076.66;;;10.93;92.36
73341;BME280;61578;52.002;5.468;2023-04-01T02:00:56;99079.59;;;10.90;92.61
73341;BME280;61578;52.002;5.468;2023-04-01T02:01:35;99080.44;;;10.90;92.75
73341;BME280;61578;52.002;5.468;2023-04-01T02:02:14;99072.47;;;10.90;92.68
73341;BME280;61578;52.002;5.468;2023-04-01T02:02:47;99079.06;;;10.86;92.76
73341;BME280;61578;52.002;5.468;2023-04-01T02:03:23;99078.91;;;10.88;92.95
73341;BME280;61578;52.002;5.468;2023-04-01T02:03:58;99085.06;;;10.88;92.87
73341;BME280;61578;52.002;5.468;2023-04-01T02:04:30;99081.56;;;10.88;92.78
73341;BME280;61578;52.002;5.468;2023-04-01T02:05:04;99086.56;;;10.91;92.96
73341;BME280;61578;52.002;5.468;2023-04-01T02:05:36;99084.63;;;10.93;92.88
73341;BME280;61578;52.002;5.468;2023-04-01T02:06:10;99081.25;;;10.91;92.65
73341;BME280;61578;52.002;5.468;2023-04-01T02:06:55;99085.47;;;10.93;92.60
73341;BME280;61578;52.002;5.468;2023-04-01T02:08:07;99078.75;;;10.89;92.47
73341;BME280;61578;52.002;5.468;2023-04-01T02:09:05;99091.22;;;10.89;92.63
73341;BME280;61578;52.002;5.468;2023-04-01T02:10:01;99078.91;;;10.88;92.64
73341;BME280;61578;52.002;5.468;2023-04-01T02:11:00;99075.97;;;10.81;93.02
73341;BME280;61578;52.002;5.468;2023-04-01T02:12:01;99091.88;;;10.91;92.63
73341;BME280;61578;52.002;5.468;2023-04-01T02:12:46;99088.69;;;10.87;92.83
73341;BME280;61578;52.002;5.468;2023-04-01T02:13:29;99087.03;;;10.86;92.64
73341;BME280;61578;52.002;5.468;2023-04-01T02:15:11;99089.22;;;10.91;92.82
73341;BME280;61578;52.002;5.468;2023-04-01T02:15:51;99096.34;;;10.90;92.94
73341;BME280;61578;52.002;5.468;2023-04-01T02:16:33;99086.72;;;10.89;92.70
73341;BME280;61578;52.002;5.468;2023-04-01T02:17:17;99087.56;;;10.90;92.64
73341;BME280;61578;52.002;5.468;2023-04-01T02:17:50;99094.53;;;10.91;92.85
73341;BME280;61578;52.002;5.468;2023-04-01T02:18:22;99093.03;;;10.88;92.88
73341;BME280;61578;52.002;5.468;2023-04-01T02:18:56;99085.59;;;10.92;92.54
73341;BME280;61578;52.002;5.468;2023-04-01T02:20:09;99080.72;;;10.87;92.59
73341;BME280;61578;52.002;5.468;2023-04-01T02:20:38;99098.19;;;10.90;92.46
73341;BME280;61578;52.002;5.468;2023-04-01T02:21:12;99086.72;;;10.89;92.51
73341;BME280;61578;52.002;5.468;2023-04-01T02:21:45;99094.84;;;10.88;93.10
73341;BME280;61578;52.002;5.468;2023-04-01T02:22:21;99100.81;;;10.90;92.64
73341;BME280;61578;52.002;5.468;2023-04-01T02:22:56;99093.88;;;10.89;92.73
73341;BME280;61578;52.002;5.468;2023-04-01T02:23:33;99094.69;;;10.89;92.55
73341;BME280;61578;52.002;5.468;2023-04-01T02:24:12;99096.53;;;10.89;92.84
73341;BME280;61578;52.002;5.468;2023-04-01T02:24:45;99092.47;;;10.85;92.83
73341;BME280;61578;52.002;5.468;2023-04-01T02:25:23;99092.19;;;10.88;92.29
73341;BME280;61578;52.002;5.468;2023-04-01T02:25:59;99092.03;;;10.89;92.28
73341;BME280;61578;52.002;5.468;2023-04-01T02:26:31;99102.66;;;10.89;92.42
73341;BME280;61578;52.002;5.468;2023-04-01T02:27:03;99098.19;;;10.90;92.68
73341;BME280;61578;52.002;5.468;2023-04-01T02:27:34;99083.09;;;10.81;92.48
73341;BME280;61578;52.002;5.468;2023-04-01T02:28:08;99093.88;;;10.89;92.40
73341;BME280;61578;52.002;5.468;2023-04-01T02:28:43;99089.69;;;10.86;92.20
73341;BME280;61578;52.002;5.468;2023-04-01T02:29:19;99099.47;;;10.86;92.65
73341;BME280;61578;52.002;5.468;2023-04-01T02:30:14;99103.09;;;10.85;92.58
73341;BME280;61578;52.002;5.468;2023-04-01T02:30:48;99104.63;;;10.87;92.63
73341;BME280;61578;52.002;5.468;2023-04-01T02:31:23;99093.03;;;10.88;92.03
73341;BME280;61578;52.002;5.468;2023-04-01T02:31:55;99088.00;;;10.85;92.00
73341;BME280;61578;52.002;5.468;2023-04-01T02:32:27;99096.34;;;10.90;91.83
73341;BME280;61578;52.002;5.468;2023-04-01T02:33:03;99093.16;;;10.87;92.35
73341;BME280;61578;52.002;5.468;2023-04-01T02:33:38;99097.50;;;10.88;92.31
73341;BME280;61578;52.002;5.468;2023-04-01T02:34:11;99099.47;;;10.86;92.37
73341;BME280;61578;52.002;5.468;2023-04-01T02:34:43;99102.13;;;10.86;92.29
73341;BME280;61578;52.002;5.468;2023-04-01T02:35:15;99094.00;;;10.87;92.62
73341;BME280;61578;52.002;5.468;2023-04-01T02:35:47;99087.88;;;10.77;92.44
73341;BME280;61578;52.002;5.468;2023-04-01T02:36:18;99104.06;;;10.84;92.46
73341;BME280;61578;52.002;5.468;2023-04-01T02:36:51;99099.47;;;10.86;92.38
73341;BME280;61578;52.002;5.468;2023-04-01T02:37:24;99092.22;;;10.78;92.58
73341;BME280;61578;52.002;5.468;2023-04-01T02:37:55;99104.19;;;10.82;92.46
73341;BME280;61578;52.002;5.468;2023-04-01T02:38:26;99093.47;;;10.74;92.66
73341;BME280;61578;52.002;5.468;2023-04-01T02:38:58;99091.38;;;10.78;92.74
73341;BME280;61578;52.002;5.468;2023-04-01T02:39:34;99105.03;;;10.83;92.71
73341;BME280;61578;52.002;5.468;2023-04-01T02:40:06;99100.56;;;10.83;92.54
73341;BME280;61578;52.002;5.468;2023-04-01T02:40:47;99107.41;;;10.86;92.34
73341;BME280;61578;52.002;5.468;2023-04-01T02:41:20;99097.06;;;10.83;92.68
73341;BME280;61578;52.002;5.468;2023-04-01T02:41:51;99097.53;;;10.78;92.81
73341;BME280;61578;52.002;5.468;2023-04-01T02:42:22;99105.19;;;10.81;92.50
73341;BME280;61578;52.002;5.468;2023-04-01T02:42:53;99102.53;;;10.81;92.62
73341;BME280;61578;52.002;5.468;2023-04-01T02:43:24;99098.06;;;10.82;92.47
73341;BME280;61578;52.002;5.468;2023-04-01T02:43:54;99102.25;;;10.84;92.39
73341;BME280;61578;52.002;5.468;2023-04-01T02:44:27;99098.47;;;10.87;92.18
73341;BME280;61578;52.002;5.468;2023-04-01T02:44:58;99102.13;;;10.86;91.96
73341;BME280;61578;52.002;5.468;2023-04-01T02:45:29;99103.94;;;10.85;92.16
73341;BME280;61578;52.002;5.468;2023-04-01T02:45:59;99105.59;;;10.86;92.17
73341;BME280;61578;52.002;5.468;2023-04-01T02:46:31;99105.75;;;10.85;92.31
73341;BME280;61578;52.002;5.468;2023-04-01T02:47:02;99103.38;;;10.82;92.36
73341;BME280;61578;52.002;5.468;2023-04-01T02:47:33;99102.38;;;10.83;92.37
73341;BME280;61578;52.002;5.468;2023-04-01T02:48:04;99098.91;;;10.82;92.21
73341;BME280;61578;52.002;5.468;2023-04-01T02:48:35;99113.00;;;10.83;92.40
73341;BME280;61578;52.002;5.468;2023-04-01T02:49:07;99108.53;;;10.83;92.31
73341;BME280;61578;52.002;5.468;2023-04-01T02:49:37;99106.16;;;10.80;92.45
73341;BME280;61578;52.002;5.468;2023-04-01T02:50:08;99107.00;;;10.81;92.79
73341;BME280;61578;52.002;5.468;2023-04-01T02:50:40;99108.81;;;10.80;92.87
73341;BME280;61578;52.002;5.468;2023-04-01T02:51:11;99107.69;;;10.83;92.75
73341;BME280;61578;52.002;5.468;2023-04-01T02:51:41;99101.53;;;10.82;92.48
73341;BME280;61578;52.002;5.468;2023-04-01T02:52:12;99108.66;;;10.82;92.50
73341;BME280;61578;52.002;5.468;2023-04-01T02:52:43;99096.97;;;10.75;92.43
73341;BME280;61578;52.002;5.468;2023-04-01T02:53:13;99100.84;;;10.80;92.80
73341;BME280;61578;52.002;5.468;2023-04-01T02:53:44;99112.03;;;10.84;92.59
73341;BME280;61578;52.002;5.468;2023-04-01T02:54:15;99109.50;;;10.82;92.65
73341;BME280;61578;52.002;5.468;2023-04-01T02:54:45;99104.06;;;10.84;93.01
73341;BME280;61578;52.002;5.468;2023-04-01T02:55:16;99106.72;;;10.84;92.64
73341;BME280;61578;52.002;5.468;2023-04-01T02:55:47;99110.34;;;10.83;92.83
73341;BME280;61578;52.002;5.468;2023-04-01T02:56:20;99104.19;;;10.82;92.50
73341;BME280;61578;52.002;5.468;2023-04-01T02:56:51;99106.16;;;10.80;92.84
73341;BME280;61578;52.002;5.468;2023-04-01T02:57:22;99101.69;;;10.81;92.70
73341;BME280;61578;52.002;5.468;2023-04-01T02:57:54;99112.88;;;10.84;92.74
73341;BME280;61578;52.002;5.468;2023-04-01T02:58:24;99106.72;;;10.84;92.74
73341;BME280;61578;52.002;5.468;2023-04-01T02:58:56;99112.88;;;10.84;92.29
73341;BME280;61578;52.002;5.468;2023-04-01T02:59:26;99100.72;;;10.82;92.36
73341;BME280;61578;52.002;5.468;2023-04-01T02:59:57;99111.31;;;10.82;92.71
73341;BME280;61578;52.002;5.468;2023-04-01T03:00:28;99113.84;;;10.83;92.62
73341;BME280;61578;52.002;5.468;2023-04-01T03:00:59;99106.72;;;10.84;92.63
73341;BME280;61578;52.002;5.468;2023-04-01T03:01:29;99111.31;;;10.82;92.50
73341;BME280;61578;52.002;5.468;2023-04-01T03:02:00;99117.63;;;10.81;92.53
73341;BME280;61578;52.002;5.468;2023-04-01T03:02:31;99108.66;;;10.82;92.56
73341;BME280;61578;52.002;5.468;2023-04-01T03:03:02;99104.19;;;10.82;92.57
73341;BME280;61578;52.002;5.468;2023-04-01T03:03:33;99112.03;;;10.84;92.60
73341;BME280;61578;52.002;5.468;2023-04-01T03:04:03;99093.59;;;10.73;92.40
73341;BME280;61578;52.002;5.468;2023-04-01T03:04:34;99107.00;;;10.81;92.32
73341;BME280;61578;52.002;5.468;2023-04-01T03:05:06;99114.97;;;10.81;92.33
73341;BME280;61578;52.002;5.468;2023-04-01T03:05:37;99110.78;;;10.78;92.80
73341;BME280;61578;52.002;5.468;2023-04-01T03:06:10;99099.16;;;10.79;92.90
73341;BME280;61578;52.002;5.468;2023-04-01T03:06:43;99107.31;;;10.78;92.79
73341;BME280;61578;52.002;5.468;2023-04-01T03:07:15;99116.94;;;10.79;92.58
73341;BME280;61578;52.002;5.468;2023-04-01T03:07:52;99101.56;;;10.73;92.78
73341;BME280;61578;52.002;5.468;2023-04-01T03:08:23;99108.13;;;10.78;92.43
73341;BME280;61578;52.002;5.468;2023-04-01T03:08:53;99113.44;;;10.78;92.79
73341;BME280;61578;52.002;5.468;2023-04-01T03:09:24;99114.28;;;10.79;92.80
73341;BME280;61578;52.002;5.468;2023-04-01T03:09:55;99112.88;;;10.75;92.71
73341;BME280;61578;52.002;5.468;2023-04-01T03:10:25;99110.78;;;10.78;92.71
73341;BME280;61578;52.002;5.468;2023-04-01T03:10:56;99114.13;;;10.80;92.52
73341;BME280;61578;52.002;5.468;2023-04-01T03:11:27;99108.97;;;10.79;92.34
73341;BME280;61578;52.002;5.468;2023-04-01T03:11:58;99114.44;;;10.77;92.07
73341;BME280;61578;52.002;5.468;2023-04-01T03:12:28;99119.88;;;10.76;92.37
73341;BME280;61578;52.002;5.468;2023-04-01T03:12:59;99109.25;;;10.76;92.86
73341;BME280;61578;52.002;5.468;2023-04-01T03:13:30;99119.03;;;10.75;92.76
73341;BME280;61578;52.002;5.468;2023-04-01T03:14:01;99118.19;;;10.75;92.82
73341;BME280;61578;52.002;5.468;2023-04-01T03:14:31;99114.84;;;10.73;92.72
73341;BME280;61578;52.002;5.468;2023-04-01T03:15:02;99118.31;;;10.73;92.92
73341;BME280;61578;52.002;5.468;2023-04-01T03:15:33;99119.16;;;10.74;92.95
73341;BME280;61578;52.002;5.468;2023-04-01T03:16:04;99117.34;;;10.74;92.82
73341;BME280;61578;52.002;5.468;2023-04-01T03:16:35;99107.31;;;10.68;93.09
73341;BME280;61578;52.002;5.468;2023-04-01T03:17:06;99114.56;;;10.76;92.76
73341;BME280;61578;52.002;5.468;2023-04-01T03:17:37;99117.22;;;10.76;93.22
73341;BME280;61578;52.002;5.468;2023-04-01T03:18:09;99092.63;;;10.64;92.45
73341;BME280;61578;52.002;5.468;2023-04-01T03:18:39;99115.41;;;10.76;92.86
73341;BME280;61578;52.002;5.468;2023-04-01T03:19:10;99117.34;;;10.74;92.93
73341;BME280;61578;52.002;5.468;2023-04-01T03:19:41;99113.84;;;10.74;92.69
73341;BME280;61578;52.002;5.468;2023-04-01T03:20:12;99120.84;;;10.75;92.75
73341;BME280;61578;52.002;5.468;2023-04-01T03:20:43;99121.69;;;10.75;92.58
73341;BME280;61578;52.002;5.468;2023-04-01T03:21:17;99110.94;;;10.67;92.57
73341;BME280;61578;52.002;5.468;2023-04-01T03:21:53;99124.34;;;10.75;93.02
73341;BME280;61578;52.002;5.468;2023-04-01T03:22:24;99120.97;;;10.73;93.10
73341;BME280;61578;52.002;5.468;2023-04-01T03:22:54;99121.81;;;10.74;92.52
73341;BME280;61578;52.002;5.468;2023-04-01T03:23:25;99125.31;;;10.74;92.67
73341;BME280;61578;52.002;5.468;2023-04-01T03:23:56;99127.00;;;10.75;92.68
73341;BME280;61578;52.002;5.468;2023-04-01T03:24:26;99134.13;;;10.75;92.71
73341;BME280;61578;52.002;5.468;2023-04-01T03:24:57;99126.28;;;10.73;92.76
73341;BME280;61578;52.002;5.468;2023-04-01T03:25:28;99130.75;;;10.73;92.72
73341;BME280;61578;52.002;5.468;2023-04-01T03:26:00;99131.59;;;10.73;92.48
73341;BME280;61578;52.002;5.468;2023-04-01T03:26:31;99126.28;;;10.73;92.54
73341;BME280;61578;52.002;5.468;2023-04-01T03:27:02;99124.22;;;10.67;93.02
73341;BME280;61578;52.002;5.468;2023-04-01T03:27:33;99133.28;;;10.74;93.03
73341;BME280;61578;52.002;5.468;2023-04-01T03:28:07;99124.63;;;10.72;92.74
73341;BME280;61578;52.002;5.468;2023-04-01T03:28:38;99132.44;;;10.74;92.98
73341;BME280;61578;52.002;5.468;2023-04-01T03:29:08;99135.09;;;10.74;93.06
73341;BME280;61578;52.002;5.468;2023-04-01T03:29:39;99128.09;;;10.73;92.84
73341;BME280;61578;52.002;5.468;2023-04-01T03:30:10;99135.94;;;10.74;92.58
73341;BME280;61578;52.002;5.468;2023-04-01T03:30:41;99131.31;;;10.76;92.66
73341;BME280;61578;52.002;5.468;2023-04-01T03:31:12;99128.25;;;10.71;92.62
73341;BME280;61578;52.002;5.468;2023-04-01T03:31:43;99132.56;;;10.72;92.73
73341;BME280;61578;52.002;5.468;2023-04-01T03:32:14;99128.25;;;10.71;92.77
73341;BME280;61578;52.002;5.468;2023-04-01T03:32:45;99124.63;;;10.72;92.95
73341;BME280;61578;52.002;5.468;2023-04-01T03:33:16;99134.41;;;10.72;92.81